Time;durP1;ratioP1;P1;durP2;ratioP2;P2;SDS_P1;SDS_P2;PMS_P1;PMS_P2;Temp;Humidity;BMP_temperature;BMP_pressure;BME280_temperature;BME280_humidity;BME280_pressure;Samples;Min_cycle;Max_cycle;Signal;HPM_P1;HPM_P2
2021/04/17 00:04:11;;;;;;;9.10;8.30;;;9.30;28.80;;;;;;10474640;28;20224;-67
2021/04/17 00:09:18;;;;;;;8.70;7.90;;;9.20;28.80;;;;;;10471905;28;20228;-67
2021/04/17 00:14:23;;;;;;;10.00;9.10;;;9.20;29.10;;;;;;10466945;28;20247;-67
2021/04/17 00:19:47;;;;;;;9.57;8.77;;;9.20;29.10;;;;;;10472458;28;20224;-67
2021/04/17 00:24:50;;;;;;;8.13;7.43;;;9.20;29.10;;;;;;10469090;28;20312;-71
2021/04/17 00:29:52;;;;;;;9.50;8.67;;;9.20;29.10;;;;;;10468207;28;20248;-70
2021/04/17 00:34:54;;;;;;;9.43;8.63;;;9.20;29.10;;;;;;10467707;28;20252;-70
2021/04/17 00:39:57;;;;;;;8.17;7.53;;;9.20;29.10;;;;;;10471837;28;20220;-70
2021/04/17 00:45:00;;;;;;;9.40;8.50;;;9.10;29.10;;;;;;10471092;28;20316;-70
2021/04/17 00:50:03;;;;;;;9.10;8.30;;;9.10;29.10;;;;;;10464171;28;20312;-70
2021/04/17 00:55:08;;;;;;;9.87;8.97;;;9.10;29.20;;;;;;10464514;28;20235;-73
2021/04/17 01:00:13;;;;;;;9.57;8.67;;;9.10;29.50;;;;;;10468807;28;20251;-72
2021/04/17 01:05:18;;;;;;;9.73;8.90;;;9.00;29.40;;;;;;10465137;28;20256;-72
2021/04/17 01:10:29;;;;;;;10.13;9.23;;;9.00;29.50;;;;;;10469895;28;20303;-72
2021/04/17 01:15:31;;;;;;;9.40;8.60;;;9.00;29.90;;;;;;10465493;28;20303;-72
2021/04/17 01:20:38;;;;;;;9.17;8.27;;;8.90;29.50;;;;;;10471036;28;20311;-72
2021/04/17 01:25:52;;;;;;;8.87;8.03;;;8.90;29.80;;;;;;10460881;28;20241;-72
2021/04/17 01:30:55;;;;;;;7.73;7.03;;;8.80;30.00;;;;;;10469361;28;20235;-72
2021/04/17 01:35:59;;;;;;;9.23;8.43;;;8.80;29.60;;;;;;10463308;28;20785;-72
2021/04/17 01:41:05;;;;;;;9.80;8.87;;;8.80;29.70;;;;;;10466749;28;20312;-71
2021/04/17 01:46:11;;;;;;;10.77;9.77;;;8.80;29.80;;;;;;10473938;28;20311;-67
2021/04/17 01:51:14;;;;;;;8.03;7.23;;;8.80;29.80;;;;;;10477717;28;20305;-67
2021/04/17 01:56:19;;;;;;;9.50;8.67;;;8.80;29.70;;;;;;10470016;28;20658;-67
2021/04/17 02:01:21;;;;;;;9.67;8.80;;;8.80;30.00;;;;;;10474851;28;20345;-72
2021/04/17 02:06:24;;;;;;;9.17;8.33;;;8.80;29.90;;;;;;10473471;28;20233;-73
2021/04/17 02:11:27;;;;;;;10.57;9.67;;;8.80;29.90;;;;;;10471767;28;20521;-72
2021/04/17 02:16:33;;;;;;;10.70;9.70;;;8.70;30.00;;;;;;10476235;28;20228;-72
2021/04/17 02:21:38;;;;;;;9.33;8.53;;;8.70;30.00;;;;;;10469877;28;20224;-72
2021/04/17 02:26:42;;;;;;;10.33;9.33;;;8.70;30.00;;;;;;10464288;28;20221;-70
2021/04/17 02:31:44;;;;;;;10.47;9.47;;;8.70;30.90;;;;;;10475295;28;20311;-70
2021/04/17 02:36:46;;;;;;;10.20;9.23;;;8.70;30.00;;;;;;10467977;28;20227;-70
2021/04/17 02:41:49;;;;;;;11.23;10.10;;;8.70;30.00;;;;;;10469363;28;20310;-70
2021/04/17 02:46:51;;;;;;;10.00;9.10;;;8.70;30.20;;;;;;10470896;28;20312;-70
2021/04/17 02:51:54;;;;;;;10.40;9.40;;;8.70;30.10;;;;;;10469074;28;20548;-70
2021/04/17 02:56:57;;;;;;;10.90;9.90;;;8.60;30.00;;;;;;10466149;28;20309;-70
2021/04/17 03:01:59;;;;;;;11.00;10.00;;;8.60;30.20;;;;;;10467472;28;20751;-67
2021/04/17 03:07:02;;;;;;;11.00;10.00;;;8.60;30.10;;;;;;10468943;28;20213;-67
2021/04/17 03:12:07;;;;;;;11.07;10.07;;;8.60;30.20;;;;;;10469604;28;20308;-67
2021/04/17 03:17:09;;;;;;;10.97;9.97;;;8.50;30.50;;;;;;10475707;28;20256;-66
2021/04/17 03:22:12;;;;;;;11.90;10.77;;;8.50;31.00;;;;;;10471304;28;20794;-67
2021/04/17 03:27:15;;;;;;;10.73;9.73;;;8.40;30.40;;;;;;10466724;28;20263;-67
2021/04/17 03:32:17;;;;;;;12.23;10.93;;;8.40;30.60;;;;;;10470105;28;20624;-67
2021/04/17 03:37:19;;;;;;;11.00;9.90;;;8.40;30.40;;;;;;10466810;28;20324;-67
2021/04/17 03:42:22;;;;;;;10.53;9.53;;;8.40;30.50;;;;;;10470564;28;20665;-67
2021/04/17 03:47:25;;;;;;;10.80;9.70;;;8.40;31.60;;;;;;10464911;28;20312;-72
2021/04/17 03:52:27;;;;;;;10.93;9.93;;;8.40;30.90;;;;;;10466904;28;20232;-72
2021/04/17 03:57:30;;;;;;;9.57;8.70;;;8.40;31.00;;;;;;10461398;28;20255;-72
2021/04/17 04:02:33;;;;;;;10.70;9.70;;;8.40;31.10;;;;;;10466283;28;20695;-70
2021/04/17 04:07:35;;;;;;;11.27;10.17;;;8.40;31.10;;;;;;10466298;28;20260;-70
2021/04/17 04:12:39;;;;;;;11.37;10.27;;;8.40;31.10;;;;;;10466096;28;20303;-70
2021/04/17 04:17:41;;;;;;;10.43;9.50;;;8.40;31.20;;;;;;10448800;22;20606;-70
2021/04/17 04:22:44;;;;;;;11.47;10.37;;;8.50;31.10;;;;;;10434113;28;20696;-70
2021/04/17 04:27:47;;;;;;;11.20;10.00;;;8.50;31.10;;;;;;10463522;28;20303;-71
2021/04/17 04:32:49;;;;;;;12.50;11.30;;;8.50;31.30;;;;;;10474560;28;20217;-71
2021/04/17 04:37:51;;;;;;;12.10;10.90;;;8.50;31.30;;;;;;10477415;28;20604;-71
2021/04/17 04:42:54;;;;;;;12.73;11.43;;;8.40;31.10;;;;;;10482448;28;20247;-71
2021/04/17 04:47:57;;;;;;;12.73;11.53;;;8.40;31.20;;;;;;10478193;28;20292;-71
2021/04/17 04:52:59;;;;;;;10.87;9.87;;;8.40;31.10;;;;;;10480867;28;20216;-71
2021/04/17 04:58:02;;;;;;;11.97;10.87;;;8.30;31.00;;;;;;10474550;28;20220;-70
2021/04/17 05:03:05;;;;;;;11.83;10.77;;;8.30;31.30;;;;;;10472517;28;20294;-71
2021/04/17 05:08:07;;;;;;;13.07;11.77;;;8.30;31.20;;;;;;10472874;28;20231;-71
2021/04/17 05:13:10;;;;;;;12.30;11.10;;;8.30;31.40;;;;;;10481208;28;20319;-71
2021/04/17 05:18:12;;;;;;;12.63;11.43;;;8.30;31.60;;;;;;10470719;28;20223;-70
2021/04/17 05:23:15;;;;;;;12.87;11.57;;;8.30;31.40;;;;;;10477977;28;20224;-70
2021/04/17 05:28:18;;;;;;;12.80;11.60;;;8.30;31.50;;;;;;10470697;28;20319;-69
2021/04/17 05:33:20;;;;;;;13.13;11.87;;;8.30;32.30;;;;;;10467430;28;20311;-69
2021/04/17 05:38:23;;;;;;;12.50;11.27;;;8.30;31.60;;;;;;10476602;28;20345;-72
2021/04/17 05:43:26;;;;;;;13.17;11.97;;;8.40;31.70;;;;;;10478515;28;20244;-70
2021/04/17 05:48:29;;;;;;;13.27;11.93;;;8.40;32.00;;;;;;10473813;28;20312;-72
2021/04/17 05:53:31;;;;;;;14.03;12.63;;;8.40;31.80;;;;;;10470672;28;20232;-72
2021/04/17 05:58:35;;;;;;;12.77;11.03;;;8.40;31.80;;;;;;10475230;28;20341;-72
2021/04/17 06:03:38;;;;;;;13.43;12.07;;;8.50;32.00;;;;;;10460946;28;20237;-69
2021/04/17 06:08:40;;;;;;;13.00;11.70;;;8.50;31.90;;;;;;10470802;28;20666;-69
2021/04/17 06:13:43;;;;;;;17.03;15.23;;;8.50;31.90;;;;;;10466932;28;20221;-69
2021/04/17 06:18:45;;;;;;;16.80;15.10;;;8.60;32.00;;;;;;10470570;28;22999;-69
2021/04/17 06:23:48;;;;;;;14.83;13.33;;;8.60;31.80;;;;;;10475413;28;20274;-69
2021/04/17 06:28:51;;;;;;;15.47;13.97;;;8.60;31.70;;;;;;10464938;28;20233;-69
2021/04/17 06:33:54;;;;;;;16.00;14.40;;;8.60;31.90;;;;;;10478198;28;20669;-69
2021/04/17 06:38:56;;;;;;;16.00;14.40;;;8.70;31.90;;;;;;10478395;28;20308;-69
2021/04/17 06:44:02;;;;;;;16.40;14.80;;;8.70;32.10;;;;;;10458923;28;20307;-69
2021/04/17 06:49:08;;;;;;;16.93;15.23;;;8.70;32.20;;;;;;10462227;28;20779;-69
2021/04/17 06:54:12;;;;;;;17.50;15.63;;;8.70;32.30;;;;;;10460609;28;20221;-69
2021/04/17 06:59:15;;;;;;;17.57;15.77;;;8.80;32.30;;;;;;10458290;28;20239;-68
2021/04/17 07:04:17;;;;;;;16.93;15.33;;;8.80;32.60;;;;;;10469063;28;20320;-69
2021/04/17 07:09:21;;;;;;;16.77;15.07;;;8.90;32.30;;;;;;10472790;28;20252;-69
2021/04/17 07:14:25;;;;;;;17.13;15.40;;;8.90;32.50;;;;;;10470475;28;20307;-69
2021/04/17 07:19:47;;;;;;;16.13;14.53;;;8.90;32.60;;;;;;10466274;28;20223;-69
2021/04/17 07:24:51;;;;;;;16.83;15.27;;;9.00;33.70;;;;;;10456948;28;20350;-69
2021/04/17 07:29:54;;;;;;;14.80;13.30;;;9.10;32.70;;;;;;10465864;28;20319;-69
2021/04/17 07:35:14;;;;;;;13.70;12.37;;;9.10;32.90;;;;;;10466242;28;20605;-69
2021/04/17 07:40:22;;;;;;;11.40;10.30;;;9.20;33.30;;;;;;10467970;28;20303;-72
2021/04/17 07:45:27;;;;;;;11.33;10.23;;;9.30;34.50;;;;;;10461653;28;20307;-71
2021/04/17 07:50:33;;;;;;;10.97;9.90;;;9.50;33.30;;;;;;10454384;28;20296;-72
2021/04/17 07:55:35;;;;;;;11.40;8.50;;;9.60;32.90;;;;;;10476143;28;20315;-73
2021/04/17 08:00:39;;;;;;;10.20;9.20;;;9.70;32.60;;;;;;10466841;28;20309;-73
2021/04/17 08:05:42;;;;;;;10.70;9.70;;;9.80;32.60;;;;;;10445898;28;20224;-73
2021/04/17 08:10:45;;;;;;;10.57;9.53;;;9.80;32.40;;;;;;10442694;28;20221;-73
2021/04/17 08:15:48;;;;;;;11.33;10.27;;;9.90;32.50;;;;;;10455931;28;20589;-73
2021/04/17 08:20:51;;;;;;;11.43;10.33;;;10.00;31.90;;;;;;10456232;28;20225;-73
2021/04/17 08:25:59;;;;;;;10.80;9.70;;;10.20;31.80;;;;;;10466440;28;20267;-73
2021/04/17 08:31:21;;;;;;;11.80;10.37;;;10.30;31.60;;;;;;10462114;28;20213;-72
2021/04/17 08:36:31;;;;;;;10.83;9.83;;;10.50;31.90;;;;;;10454820;28;20282;-73
2021/04/17 08:41:38;;;;;;;11.47;10.30;;;10.50;31.50;;;;;;10460921;28;20311;-73
2021/04/17 08:46:42;;;;;;;11.43;10.43;;;10.60;31.40;;;;;;10460724;28;20221;-72
2021/04/17 08:51:45;;;;;;;11.40;10.23;;;10.60;31.10;;;;;;10473324;28;20496;-73
2021/04/17 08:56:55;;;;;;;11.20;10.10;;;10.60;30.80;;;;;;10463566;28;20316;-73
2021/04/17 09:02:02;;;;;;;10.00;9.10;;;10.70;31.10;;;;;;10467648;28;20224;-73
2021/04/17 09:07:16;;;;;;;12.23;11.13;;;10.70;31.00;;;;;;10472708;28;20233;-73
2021/04/17 09:12:29;;;;;;;13.33;12.03;;;10.80;30.90;;;;;;10476563;28;20311;-73
2021/04/17 09:17:41;;;;;;;14.00;12.70;;;10.90;30.90;;;;;;10463050;28;20272;-73
2021/04/17 09:22:51;;;;;;;12.57;11.37;;;10.90;30.70;;;;;;10475182;28;20225;-73
2021/04/17 09:27:53;;;;;;;13.30;12.00;;;10.90;30.50;;;;;;10471155;28;20656;-73
2021/04/17 09:32:58;;;;;;;13.17;11.87;;;10.90;30.40;;;;;;10477798;28;20220;-72
2021/04/17 09:38:10;;;;;;;10.90;9.80;;;10.90;30.40;;;;;;10469813;28;20554;-72
2021/04/17 09:43:25;;;;;;;10.93;9.93;;;11.00;30.20;;;;;;10474066;28;20224;-72
2021/04/17 09:48:38;;;;;;;11.07;9.90;;;11.00;30.30;;;;;;10477837;28;20245;-72
2021/04/17 09:53:41;;;;;;;10.30;9.40;;;11.20;30.10;;;;;;10478250;28;20306;-72
2021/04/17 09:58:45;;;;;;;11.30;10.30;;;11.20;30.00;;;;;;10471122;28;20229;-72
2021/04/17 10:03:53;;;;;;;11.73;10.73;;;11.30;30.00;;;;;;10469311;28;20259;-72
2021/04/17 10:08:57;;;;;;;10.57;9.57;;;11.40;29.70;;;;;;10492564;28;20315;-73
2021/04/17 10:13:59;;;;;;;11.33;10.20;;;11.50;29.50;;;;;;10480373;28;20256;-72
2021/04/17 10:19:04;;;;;;;10.57;9.60;;;11.50;29.40;;;;;;10478673;28;20741;-72
2021/04/17 10:24:18;;;;;;;9.07;8.00;;;11.60;29.40;;;;;;10486173;28;20794;-73
2021/04/17 10:29:32;;;;;;;9.83;8.90;;;11.60;29.40;;;;;;10493585;28;22520;-72
2021/04/17 10:34:35;;;;;;;9.07;8.27;;;11.60;29.40;;;;;;10487324;28;20307;-73
2021/04/17 10:39:56;;;;;;;9.43;8.63;;;11.70;29.50;;;;;;10482741;28;20595;-72
2021/04/17 10:44:58;;;;;;;8.60;7.90;;;11.70;29.40;;;;;;10479744;28;20760;-73
2021/04/17 10:50:15;;;;;;;8.20;7.43;;;11.80;29.50;;;;;;10491207;28;20307;-72
2021/04/17 10:55:30;;;;;;;8.80;8.00;;;11.80;28.80;;;;;;10493184;28;22209;-72
2021/04/17 11:00:34;;;;;;;7.77;7.07;;;11.90;28.60;;;;;;10474743;28;20314;-72
2021/04/17 11:05:37;;;;;;;7.37;6.43;;;11.90;29.00;;;;;;10486298;28;20248;-72
2021/04/17 11:10:40;;;;;;;6.73;6.03;;;11.90;28.80;;;;;;10480146;28;20247;-72
2021/04/17 11:15:45;;;;;;;6.53;5.93;;;12.00;28.90;;;;;;10478004;28;20251;-72
2021/04/17 11:20:55;;;;;;;6.20;5.60;;;12.00;28.70;;;;;;10479067;28;20225;-72
2021/04/17 11:25:57;;;;;;;6.23;5.50;;;12.10;28.60;;;;;;10478207;28;20259;-72
2021/04/17 11:31:00;;;;;;;5.63;5.13;;;12.10;28.50;;;;;;10474491;28;20240;-72
2021/04/17 11:36:04;;;;;;;6.97;6.27;;;12.10;28.50;;;;;;10473908;28;20330;-72
2021/04/17 11:41:06;;;;;;;5.80;5.17;;;12.10;28.40;;;;;;10487101;28;21510;-72
2021/04/17 11:46:10;;;;;;;7.43;6.73;;;12.10;28.60;;;;;;10482645;28;20267;-72
2021/04/17 11:51:15;;;;;;;3.60;3.30;;;12.10;28.50;;;;;;10482251;28;21026;-72
2021/04/17 11:56:18;;;;;;;3.10;2.80;;;12.20;27.70;;;;;;10475176;28;20236;-71
2021/04/17 12:01:21;;;;;;;2.90;2.70;;;12.20;27.60;;;;;;10479769;28;20318;-71
2021/04/17 12:06:28;;;;;;;3.10;2.43;;;12.20;27.40;;;;;;10473880;28;20331;-71
2021/04/17 12:11:34;;;;;;;3.50;3.10;;;12.30;27.30;;;;;;10479791;28;20239;-71
2021/04/17 12:16:36;;;;;;;2.87;2.60;;;12.40;27.30;;;;;;10475653;28;20244;-71
2021/04/17 12:21:40;;;;;;;3.30;3.00;;;12.40;27.30;;;;;;10481423;28;20307;-71
2021/04/17 12:26:42;;;;;;;4.60;3.50;;;12.50;27.30;;;;;;10477113;28;20225;-72
2021/04/17 12:31:45;;;;;;;4.30;4.00;;;12.60;27.60;;;;;;10470492;28;20213;-71
2021/04/17 12:36:48;;;;;;;3.80;3.40;;;12.70;27.50;;;;;;10472611;28;20259;-72
2021/04/17 12:41:50;;;;;;;4.63;3.63;;;12.80;27.00;;;;;;10476080;28;20695;-71
2021/04/17 12:46:52;;;;;;;4.00;3.20;;;12.90;27.20;;;;;;10478184;28;20249;-71
2021/04/17 12:51:56;;;;;;;4.23;3.63;;;12.90;27.20;;;;;;10477301;28;20224;-72
2021/04/17 12:56:58;;;;;;;4.10;3.70;;;13.00;26.90;;;;;;10477141;28;20228;-71
2021/04/17 13:02:00;;;;;;;4.20;3.77;;;13.10;27.00;;;;;;10479620;28;20319;-71
2021/04/17 13:07:04;;;;;;;5.07;3.87;;;13.20;27.00;;;;;;10485321;28;20624;-72
2021/04/17 13:12:07;;;;;;;4.23;3.93;;;13.20;26.60;;;;;;10476373;28;20271;-72
2021/04/17 13:17:09;;;;;;;4.10;3.70;;;13.30;27.10;;;;;;10472750;28;20231;-72
2021/04/17 13:22:13;;;;;;;4.07;3.70;;;13.40;26.90;;;;;;10475074;28;20235;-72
2021/04/17 13:27:15;;;;;;;4.17;3.87;;;13.50;26.50;;;;;;10479037;28;20248;-72
2021/04/17 13:32:17;;;;;;;4.40;4.00;;;13.60;26.40;;;;;;10472712;28;20256;-72
2021/04/17 13:37:20;;;;;;;4.60;3.80;;;13.60;26.50;;;;;;10485424;28;20220;-72
2021/04/17 13:42:23;;;;;;;4.30;3.90;;;13.70;26.10;;;;;;10485017;28;20313;-72
2021/04/17 13:47:25;;;;;;;4.33;3.93;;;13.70;26.20;;;;;;10486041;28;20273;-72
2021/04/17 13:52:28;;;;;;;4.10;3.70;;;13.70;26.10;;;;;;10478937;28;20220;-70
2021/04/17 13:57:30;;;;;;;4.63;4.23;;;13.70;26.30;;;;;;10479644;28;20674;-72
2021/04/17 14:02:33;;;;;;;4.30;4.00;;;13.60;26.00;;;;;;10491703;28;20316;-72
2021/04/17 14:07:36;;;;;;;5.53;4.10;;;13.70;26.10;;;;;;10492481;28;20236;-72
2021/04/17 14:12:39;;;;;;;4.80;4.40;;;13.70;26.10;;;;;;10490557;28;20696;-72
2021/04/17 14:17:41;;;;;;;5.43;4.40;;;13.70;26.30;;;;;;10479111;28;20250;-72
2021/04/17 14:22:45;;;;;;;4.90;4.40;;;13.80;25.90;;;;;;10476726;28;20567;-71
2021/04/17 14:27:47;;;;;;;4.27;3.97;;;13.80;25.70;;;;;;10472004;28;20280;-72
2021/04/17 14:32:49;;;;;;;4.70;4.30;;;13.80;25.80;;;;;;10482502;28;20327;-72
2021/04/17 14:37:53;;;;;;;4.20;3.83;;;13.80;25.60;;;;;;10478725;28;20311;-72
2021/04/17 14:42:56;;;;;;;4.73;4.33;;;13.80;25.60;;;;;;10478372;28;20323;-73
2021/04/17 14:47:58;;;;;;;4.30;3.90;;;13.80;25.80;;;;;;10480690;28;20252;-72
2021/04/17 14:53:01;;;;;;;3.90;3.60;;;13.80;25.60;;;;;;10482457;28;20244;-72
2021/04/17 14:58:03;;;;;;;5.70;4.00;;;13.70;25.60;;;;;;10476150;28;20715;-72
2021/04/17 15:03:06;;;;;;;3.93;3.63;;;13.70;25.70;;;;;;10482028;28;20275;-72
2021/04/17 15:08:09;;;;;;;3.77;3.47;;;13.60;25.40;;;;;;10481635;28;20328;-72
2021/04/17 15:13:11;;;;;;;3.70;3.40;;;13.50;25.60;;;;;;10474448;28;20318;-72
2021/04/17 15:18:13;;;;;;;4.60;3.73;;;13.50;26.00;;;;;;10484676;28;20256;-72
2021/04/17 15:23:19;;;;;;;4.70;3.97;;;13.40;26.00;;;;;;10474855;28;20749;-72
2021/04/17 15:28:23;;;;;;;5.40;4.43;;;13.30;25.90;;;;;;10474138;28;20252;-71
2021/04/17 15:33:25;;;;;;;4.90;4.50;;;13.20;26.10;;;;;;10471874;28;20244;-72
2021/04/17 15:38:29;;;;;;;4.70;4.07;;;13.10;26.30;;;;;;10478977;28;20606;-72
2021/04/17 15:43:32;;;;;;;5.40;4.43;;;13.00;26.40;;;;;;10469099;28;20386;-70
2021/04/17 15:48:34;;;;;;;4.30;3.90;;;13.00;26.50;;;;;;10487531;28;20232;-71
2021/04/17 15:53:38;;;;;;;5.13;4.10;;;12.90;26.50;;;;;;10479693;28;20220;-71
2021/04/17 16:14:41;;;;;;;5.10;4.70;;;12.70;27.10;;;;;;10480572;28;20703;-72
2021/04/17 16:19:56;;;;;;;4.97;4.47;;;12.60;27.10;;;;;;10469920;28;20225;-73
2021/04/17 16:25:00;;;;;;;4.50;4.10;;;12.50;27.10;;;;;;10482691;28;20251;-73
2021/04/17 16:30:04;;;;;;;4.57;4.17;;;12.50;27.20;;;;;;10477905;28;20240;-72
2021/04/17 16:35:08;;;;;;;4.43;4.07;;;12.40;27.40;;;;;;10484552;28;20244;-72
2021/04/17 16:40:13;;;;;;;5.20;3.70;;;12.30;27.30;;;;;;10470160;28;20305;-73
2021/04/17 16:45:17;;;;;;;4.33;4.00;;;12.30;27.50;;;;;;10480427;28;20663;-73
2021/04/17 16:50:21;;;;;;;4.27;3.97;;;12.30;27.50;;;;;;10473472;28;20285;-72
2021/04/17 16:55:25;;;;;;;4.87;3.90;;;12.20;27.50;;;;;;10470467;28;20282;-73
2021/04/17 17:00:27;;;;;;;4.20;3.90;;;12.20;27.40;;;;;;10471850;28;20649;-72
2021/04/17 17:05:29;;;;;;;4.63;4.23;;;12.10;27.30;;;;;;10475440;28;20319;-72
2021/04/17 17:10:33;;;;;;;4.23;3.87;;;12.10;27.40;;;;;;10478500;28;20222;-72
2021/04/17 17:15:37;;;;;;;4.37;3.90;;;12.10;27.60;;;;;;10479688;28;20724;-72
2021/04/17 17:20:52;;;;;;;4.07;3.73;;;12.00;27.60;;;;;;10482355;28;20758;-72
2021/04/17 17:25:55;;;;;;;4.60;4.20;;;11.90;27.50;;;;;;10474255;28;20927;-72
2021/04/17 17:30:57;;;;;;;4.60;4.27;;;11.90;27.50;;;;;;10477272;28;20658;-72
2021/04/17 17:35:59;;;;;;;4.50;4.20;;;11.80;27.50;;;;;;10475496;28;20232;-72
2021/04/17 17:41:03;;;;;;;4.37;3.97;;;11.70;27.50;;;;;;10478366;28;20311;-72
2021/04/17 17:46:05;;;;;;;4.57;4.17;;;11.60;27.60;;;;;;10473643;28;20307;-73
2021/04/17 17:51:08;;;;;;;4.50;4.20;;;11.60;27.70;;;;;;10484524;28;20723;-72
2021/04/17 17:56:11;;;;;;;4.77;4.37;;;11.50;27.70;;;;;;10471286;28;20248;-72
2021/04/17 18:01:13;;;;;;;4.43;4.10;;;11.50;27.80;;;;;;10482608;28;20303;-72
2021/04/17 18:06:15;;;;;;;4.53;4.13;;;11.50;27.80;;;;;;10471184;28;20252;-72
2021/04/17 18:11:18;;;;;;;3.83;3.53;;;11.40;27.80;;;;;;10467940;28;20256;-71
2021/04/17 18:16:21;;;;;;;4.10;3.80;;;11.40;27.90;;;;;;10473534;28;20314;-72
2021/04/17 18:21:23;;;;;;;4.53;4.23;;;11.40;27.90;;;;;;10484012;28;20248;-72
2021/04/17 18:26:26;;;;;;;6.60;6.07;;;11.40;28.00;;;;;;10467227;28;20312;-72
2021/04/17 18:31:29;;;;;;;4.73;4.43;;;11.40;28.10;;;;;;10450083;28;20243;-72
2021/04/17 18:36:31;;;;;;;4.67;4.37;;;11.40;28.00;;;;;;10449853;28;20236;-73
2021/04/17 18:41:35;;;;;;;6.30;4.40;;;11.30;28.00;;;;;;10474201;28;20236;-73
2021/04/17 18:46:37;;;;;;;4.73;4.40;;;11.30;28.10;;;;;;10472117;28;20251;-73
2021/04/17 18:51:40;;;;;;;7.80;7.10;;;11.30;28.10;;;;;;10473607;28;20225;-73
2021/04/17 18:56:43;;;;;;;7.53;6.87;;;11.30;28.10;;;;;;10475147;28;20303;-73
2021/04/17 19:01:45;;;;;;;11.20;10.33;;;11.30;28.30;;;;;;10480130;28;20298;-73
2021/04/17 19:06:48;;;;;;;7.33;6.73;;;11.30;28.20;;;;;;10467339;28;20217;-74
2021/04/17 19:11:51;;;;;;;15.13;14.03;;;11.30;28.30;;;;;;10471968;28;20307;-73
2021/04/17 19:16:53;;;;;;;11.43;10.53;;;11.30;28.40;;;;;;10482070;28;20315;-73
2021/04/17 19:21:56;;;;;;;8.03;7.43;;;11.30;28.30;;;;;;10464360;28;20771;-73
2021/04/17 19:27:00;;;;;;;5.37;4.97;;;11.30;28.30;;;;;;10469540;28;20235;-73
2021/04/17 19:32:02;;;;;;;6.53;6.03;;;11.30;28.40;;;;;;10477267;28;20220;-73
2021/04/17 19:37:06;;;;;;;8.17;7.47;;;11.30;28.30;;;;;;10455475;28;20750;-73
2021/04/17 19:42:10;;;;;;;5.50;5.00;;;11.20;28.30;;;;;;10470310;28;20235;-73
2021/04/17 19:47:12;;;;;;;5.37;4.80;;;11.20;28.40;;;;;;10473714;28;20236;-73
2021/04/17 19:52:15;;;;;;;5.20;4.80;;;11.10;28.30;;;;;;10460254;28;20240;-73
2021/04/17 19:57:19;;;;;;;5.50;5.00;;;11.00;28.30;;;;;;10459226;28;20707;-73
2021/04/17 20:02:22;;;;;;;4.57;4.27;;;11.00;28.60;;;;;;10451799;28;20330;-73
2021/04/17 20:07:29;;;;;;;4.77;4.37;;;10.90;28.30;;;;;;10453974;28;20255;-73
2021/04/17 20:12:32;;;;;;;5.07;4.73;;;10.90;28.80;;;;;;10454136;28;20718;-73
2021/04/17 20:17:35;;;;;;;4.83;4.43;;;10.90;29.00;;;;;;10459721;28;20326;-73
2021/04/17 20:22:41;;;;;;;4.63;4.33;;;10.90;29.00;;;;;;10449136;28;20228;-73
2021/04/17 20:27:45;;;;;;;5.43;5.03;;;10.80;28.90;;;;;;10465539;28;20316;-73
2021/04/17 20:32:47;;;;;;;5.37;4.97;;;10.80;28.90;;;;;;10467679;28;20344;-72
2021/04/17 20:37:50;;;;;;;5.10;4.73;;;10.80;28.90;;;;;;10457518;28;20279;-72
2021/04/17 20:42:53;;;;;;;5.30;4.90;;;10.80;28.90;;;;;;10475209;28;20748;-72
2021/04/17 20:47:55;;;;;;;5.37;4.97;;;10.80;28.90;;;;;;10457743;28;20228;-72
2021/04/17 20:52:58;;;;;;;4.83;4.43;;;10.80;28.90;;;;;;10467304;28;20766;-72
2021/04/17 20:58:01;;;;;;;5.97;5.47;;;10.70;28.80;;;;;;10466494;28;20240;-72
2021/04/17 21:03:04;;;;;;;4.73;4.43;;;10.70;28.80;;;;;;10465079;28;20305;-72
2021/04/17 21:08:10;;;;;;;5.53;5.03;;;10.70;28.80;;;;;;10464034;28;20320;-72
2021/04/17 21:13:14;;;;;;;5.40;5.00;;;10.60;28.80;;;;;;10475938;28;20769;-71
2021/04/17 21:18:17;;;;;;;5.03;4.63;;;10.60;28.70;;;;;;10476480;28;20613;-72
2021/04/17 21:23:19;;;;;;;5.20;4.80;;;10.50;28.70;;;;;;10474735;28;20580;-72
2021/04/17 21:28:23;;;;;;;5.27;4.87;;;10.50;28.70;;;;;;10473490;28;20727;-72
2021/04/17 21:33:25;;;;;;;4.93;4.63;;;10.40;29.10;;;;;;10477005;28;20227;-72
2021/04/17 21:38:29;;;;;;;5.07;4.70;;;10.40;28.90;;;;;;10469224;28;20228;-72
2021/04/17 21:43:33;;;;;;;5.83;5.40;;;10.40;29.00;;;;;;10474937;28;20236;-72
2021/04/17 21:48:35;;;;;;;4.23;3.93;;;10.40;29.30;;;;;;10474358;28;20224;-72
2021/04/17 21:53:38;;;;;;;5.70;5.30;;;10.40;29.20;;;;;;10473112;28;20301;-72
2021/04/17 21:58:42;;;;;;;5.77;5.30;;;10.40;29.30;;;;;;10474707;28;20234;-72
2021/04/17 22:03:45;;;;;;;6.53;6.03;;;10.40;29.50;;;;;;10482128;28;20309;-72
2021/04/17 22:08:48;;;;;;;5.73;5.33;;;10.40;29.40;;;;;;10485369;28;20228;-72
2021/04/17 22:13:51;;;;;;;5.83;5.43;;;10.30;29.40;;;;;;10476901;28;20315;-72
2021/04/17 22:18:54;;;;;;;6.00;5.50;;;10.30;29.40;;;;;;10479999;28;20307;-71
2021/04/17 22:23:56;;;;;;;5.13;4.73;;;10.30;29.30;;;;;;10479849;28;20232;-71
2021/04/17 22:28:59;;;;;;;5.50;5.10;;;10.30;29.40;;;;;;10478315;28;20239;-72
2021/04/17 22:34:01;;;;;;;5.70;5.30;;;10.30;29.50;;;;;;10473357;28;20256;-71
2021/04/17 22:39:05;;;;;;;6.77;6.20;;;10.20;29.50;;;;;;10488647;28;20357;-71
2021/04/17 22:44:08;;;;;;;5.93;5.43;;;10.20;29.50;;;;;;10478530;28;20764;-71
2021/04/17 22:49:10;;;;;;;8.60;7.80;;;10.20;29.60;;;;;;10473693;28;20648;-71
2021/04/17 22:54:12;;;;;;;7.83;7.17;;;10.20;29.60;;;;;;10479955;28;20508;-71
2021/04/17 22:59:15;;;;;;;7.33;6.73;;;10.20;29.60;;;;;;10472868;28;20315;-71
2021/04/17 23:04:19;;;;;;;6.87;6.37;;;10.10;29.70;;;;;;10482855;28;20307;-71
2021/04/17 23:09:21;;;;;;;6.77;6.27;;;10.10;29.60;;;;;;10478768;28;20319;-71
2021/04/17 23:14:24;;;;;;;6.03;5.60;;;10.10;29.70;;;;;;10474914;28;20248;-71
2021/04/17 23:19:26;;;;;;;6.87;6.37;;;10.10;29.90;;;;;;10478857;28;20307;-71
2021/04/17 23:24:29;;;;;;;6.67;6.17;;;10.00;29.70;;;;;;10479054;28;20316;-71
2021/04/17 23:29:32;;;;;;;7.03;6.43;;;10.00;29.80;;;;;;10477874;28;20312;-72
2021/04/17 23:34:34;;;;;;;6.27;5.80;;;10.00;29.90;;;;;;10477436;28;20227;-72
2021/04/17 23:39:37;;;;;;;6.50;6.00;;;9.90;30.60;;;;;;10481399;28;20308;-71
2021/04/17 23:44:40;;;;;;;5.73;5.33;;;9.90;30.60;;;;;;10476730;28;20311;-71
2021/04/17 23:49:42;;;;;;;6.27;5.77;;;9.90;30.80;;;;;;10471951;28;20224;-71
2021/04/17 23:54:44;;;;;;;6.77;6.27;;;9.80;30.80;;;;;;10480633;28;20220;-72
2021/04/17 23:59:47;;;;;;;7.33;6.63;;;9.80;30.90;;;;;;10480189;28;20498;-71
